createdAt,value
2022-12-14T00:00:02.404Z,1016.35
2022-12-14T00:10:02.152Z,1016.22
2022-12-14T00:20:01.287Z,1016.10
2022-12-14T00:30:01.003Z,1015.93
2022-12-14T00:40:01.045Z,1015.93
2022-12-14T00:50:01.321Z,1015.90
2022-12-14T01:00:00.204Z,1015.93
2022-12-14T01:10:01.411Z,1016.01
2022-12-14T01:20:01.515Z,1015.82
2022-12-14T01:30:01.219Z,1015.78
2022-12-14T01:40:01.279Z,1015.75
2022-12-14T01:50:01.017Z,1015.66
2022-12-14T02:00:06.823Z,1015.57
2022-12-14T02:10:01.533Z,1015.51
2022-12-14T02:20:02.822Z,1015.48
2022-12-14T02:30:01.119Z,1015.50
2022-12-14T02:40:01.030Z,1015.49
2022-12-14T02:50:01.447Z,1015.45
2022-12-14T03:00:01.752Z,1015.37
2022-12-14T03:10:02.335Z,1015.29
2022-12-14T03:20:01.819Z,1015.24
2022-12-14T03:30:01.335Z,1015.11
2022-12-14T03:40:01.009Z,1014.96
2022-12-14T03:50:02.120Z,1014.96
2022-12-14T04:00:01.083Z,1014.83
2022-12-14T04:10:01.053Z,1014.77
2022-12-14T04:20:01.405Z,1014.70
2022-12-14T04:30:01.033Z,1014.60
2022-12-14T04:40:01.361Z,1014.54
2022-12-14T04:50:01.475Z,1014.46
2022-12-14T05:00:01.226Z,1014.29
2022-12-14T05:10:01.256Z,1014.17
2022-12-14T05:20:01.312Z,1014.11
2022-12-14T05:30:00.146Z,1014.00
2022-12-14T05:40:01.055Z,1013.86
2022-12-14T05:50:01.325Z,1013.67
2022-12-14T06:00:01.837Z,1013.47
2022-12-14T06:10:01.504Z,1013.46
2022-12-14T06:20:00.163Z,1013.45
2022-12-14T06:30:00.173Z,1013.39
2022-12-14T06:40:00.983Z,1013.32
2022-12-14T06:50:00.147Z,1013.29
2022-12-14T07:00:00.138Z,1013.20
2022-12-14T07:10:01.486Z,1013.18
2022-12-14T07:20:00.142Z,1013.09
2022-12-14T07:30:01.060Z,1012.96
2022-12-14T07:40:01.028Z,1012.82
2022-12-14T07:50:01.091Z,1012.84
2022-12-14T08:00:00.144Z,1012.87
2022-12-14T08:10:00.151Z,1012.83
2022-12-14T08:20:01.069Z,1012.83
2022-12-14T08:30:01.264Z,1012.68
2022-12-14T08:40:02.071Z,1012.61
2022-12-14T08:50:01.016Z,1012.55
2022-12-14T09:00:04.430Z,1012.47
2022-12-14T09:10:03.367Z,1012.39
2022-12-14T09:20:01.096Z,1012.37
2022-12-14T09:30:00.192Z,1012.25
2022-12-14T09:40:01.060Z,1012.08
2022-12-14T09:50:01.506Z,1011.91
2022-12-14T10:00:00.957Z,1011.87
2022-12-14T10:10:02.514Z,1011.77
2022-12-14T10:20:01.205Z,1011.59
2022-12-14T10:30:01.241Z,1011.36
2022-12-14T10:40:04.605Z,1011.24
2022-12-14T10:50:01.117Z,1011.13
2022-12-14T11:00:08.791Z,1011.19
2022-12-14T11:10:03.179Z,1010.92
2022-12-14T11:20:01.501Z,1010.69
2022-12-14T11:30:01.245Z,1010.61
2022-12-14T11:40:01.728Z,1010.62
2022-12-14T11:50:02.832Z,1010.65
2022-12-14T12:00:02.089Z,1010.58
2022-12-14T12:10:01.276Z,1010.52
2022-12-14T12:20:00.157Z,1010.48
2022-12-14T12:30:00.141Z,1010.36
2022-12-14T12:40:01.579Z,1010.21
2022-12-14T12:50:01.281Z,1010.23
2022-12-14T13:00:01.087Z,1010.13
2022-12-14T13:10:05.453Z,1010.04
2022-12-14T13:20:00.669Z,1010.05
2022-12-14T13:30:01.684Z,1009.98
2022-12-14T13:40:01.031Z,1009.94
2022-12-14T14:00:01.746Z,1009.86
2022-12-14T14:10:02.693Z,1009.82
2022-12-14T14:20:03.526Z,1009.78
2022-12-14T14:30:02.048Z,1009.65
2022-12-14T14:40:13.186Z,1009.47
2022-12-14T14:50:01.469Z,1009.48
2022-12-14T15:00:01.716Z,1009.41
2022-12-14T15:10:01.797Z,1009.37
2022-12-14T15:20:01.157Z,1009.32
2022-12-14T15:30:01.052Z,1009.34
2022-12-14T15:40:03.752Z,1009.38
2022-12-14T15:50:06.902Z,1009.35
2022-12-14T16:00:04.436Z,1009.28
2022-12-14T16:10:01.082Z,1009.33
2022-12-14T16:20:01.426Z,1009.25
2022-12-14T16:30:01.094Z,1009.22
2022-12-14T16:40:01.675Z,1009.25
2022-12-14T16:50:01.087Z,1009.27
2022-12-14T17:00:02.146Z,1009.32
2022-12-14T17:10:00.224Z,1009.30
2022-12-14T17:20:01.078Z,1009.43
2022-12-14T17:30:01.276Z,1009.32
2022-12-14T17:40:01.325Z,1009.40
2022-12-14T17:50:00.991Z,1009.43
2022-12-14T18:00:04.188Z,1009.27
2022-12-14T18:10:01.087Z,1009.44
2022-12-14T18:20:02.274Z,1009.40
2022-12-14T18:30:00.976Z,1009.38
2022-12-14T18:40:01.294Z,1009.40
2022-12-14T18:50:01.244Z,1009.51
2022-12-14T19:00:01.076Z,1009.47
2022-12-14T19:10:01.314Z,1009.58
2022-12-14T19:20:00.163Z,1009.55
2022-12-14T19:30:01.307Z,1009.62
2022-12-14T19:40:00.168Z,1009.55
2022-12-14T19:50:01.221Z,1009.56
2022-12-14T20:00:01.486Z,1009.64
2022-12-14T20:10:00.976Z,1009.70
2022-12-14T20:20:00.180Z,1009.63
2022-12-14T20:30:02.918Z,1009.63
2022-12-14T20:40:02.034Z,1009.66
2022-12-14T20:50:01.214Z,1009.71
2022-12-14T21:00:01.304Z,1009.73
2022-12-14T21:10:01.210Z,1009.66
2022-12-14T21:20:01.048Z,1009.71
2022-12-14T21:30:01.435Z,1009.83
2022-12-14T21:40:02.215Z,1009.85
2022-12-14T21:50:02.115Z,1009.84
2022-12-14T22:00:01.093Z,1009.79
2022-12-14T22:10:00.997Z,1009.96
2022-12-14T22:20:01.314Z,1009.97
2022-12-14T22:30:01.338Z,1010.07
2022-12-14T22:40:01.291Z,1010.16
2022-12-14T22:50:00.954Z,1010.13
2022-12-14T23:00:01.136Z,1010.10
2022-12-14T23:10:01.313Z,1010.09
2022-12-14T23:20:04.544Z,1010.14
2022-12-14T23:30:01.080Z,1010.17
2022-12-14T23:40:01.311Z,1010.09
2022-12-14T23:50:01.095Z,1010.16
